Time;durP1;ratioP1;P1;durP2;ratioP2;P2;SDS_P1;SDS_P2;PMS_P1;PMS_P2;Temp;Humidity;BMP_temperature;BMP_pressure;BME280_temperature;BME280_humidity;BME280_pressure;Samples;Min_cycle;Max_cycle;Signal;HPM_P1;HPM_P2
2022/07/13 00:01:45;;;;;;;7.20;5.00;;;;;;;23.82;76.50;102025.53;5196743;28;20097;-74
2022/07/13 00:04:16;;;;;;;7.27;4.67;;;;;;;23.77;75.97;102026.09;5195723;28;20372;-74
2022/07/13 00:06:47;;;;;;;6.17;4.70;;;;;;;23.75;75.27;102028.16;5196718;28;20471;-74
2022/07/13 00:09:18;;;;;;;6.57;4.77;;;;;;;23.75;73.60;102025.47;5195117;28;20446;-74
2022/07/13 00:11:50;;;;;;;8.33;4.70;;;;;;;23.71;73.75;102009.97;5196345;28;20038;-74
2022/07/13 00:14:21;;;;;;;7.73;5.13;;;;;;;23.72;72.94;101991.06;5196255;28;20435;-74
2022/07/13 00:16:52;;;;;;;7.80;4.80;;;;;;;23.71;72.61;101991.22;5193255;28;20022;-74
2022/07/13 00:19:24;;;;;;;6.63;4.20;;;;;;;23.62;72.23;101987.00;5195922;28;20037;-74
2022/07/13 00:21:55;;;;;;;5.60;4.03;;;;;;;23.67;71.69;101987.28;5202166;28;20014;-74
2022/07/13 00:24:26;;;;;;;6.67;4.23;;;;;;;23.68;69.98;101987.09;5195205;28;20042;-74
2022/07/13 00:26:58;;;;;;;8.30;4.10;;;;;;;23.64;70.96;101975.09;5195625;28;20022;-74
2022/07/13 00:29:29;;;;;;;9.80;4.07;;;;;;;23.64;70.22;101980.44;5195745;28;20113;-74
2022/07/13 00:32:00;;;;;;;5.90;4.23;;;;;;;23.66;69.63;101988.28;5195365;28;20042;-74
2022/07/13 00:34:32;;;;;;;8.07;4.47;;;;;;;23.66;69.10;101985.59;5194975;28;20400;-74
2022/07/13 00:37:04;;;;;;;11.85;4.90;;;;;;;23.64;67.97;101974.25;5194777;28;20089;-74
2022/07/13 00:39:35;;;;;;;9.53;4.60;;;;;;;23.64;67.82;101968.88;5196471;28;20034;-74
2022/07/13 00:42:06;;;;;;;7.37;4.37;;;;;;;23.63;67.66;101957.38;5194656;28;20036;-74
2022/07/13 00:44:37;;;;;;;7.93;4.57;;;;;;;23.64;67.12;101948.34;5195594;28;20114;-74
2022/07/13 00:47:10;;;;;;;7.70;3.87;;;;;;;23.59;65.69;101928.50;5195231;28;20029;-74
2022/07/13 00:49:42;;;;;;;8.60;4.05;;;;;;;23.60;66.06;101943.53;5195494;28;20061;-74
2022/07/13 00:52:14;;;;;;;5.80;3.80;;;;;;;23.65;64.74;101949.16;5194719;28;20542;-74
2022/07/13 00:54:45;;;;;;;7.43;4.35;;;;;;;23.65;62.93;101949.16;5194760;28;20023;-74
2022/07/13 00:57:17;;;;;;;6.77;3.80;;;;;;;23.66;62.93;101942.78;5194870;28;20034;-74
2022/07/13 00:59:49;;;;;;;6.70;3.63;;;;;;;23.65;62.63;101936.63;5195404;28;20452;-74
2022/07/13 01:02:20;;;;;;;5.50;3.65;;;;;;;23.65;62.91;101943.81;5194515;28;20041;-74
2022/07/13 01:04:52;;;;;;;6.37;3.60;;;;;;;23.61;62.32;101932.66;5195368;28;20446;-74
2022/07/13 01:07:24;;;;;;;9.80;3.60;;;;;;;23.67;62.26;101931.09;5194969;28;20085;-74
2022/07/13 01:09:56;;;;;;;5.60;3.50;;;;;;;23.65;61.99;101931.25;5193661;28;20030;-74
2022/07/13 01:12:29;;;;;;;7.93;4.43;;;;;;;23.68;61.41;101938.13;5194416;28;20037;-74
2022/07/13 01:15:01;;;;;;;6.22;3.85;;;;;;;23.63;61.24;101937.81;5192641;28;20061;-74
2022/07/13 01:17:35;;;;;;;5.90;3.70;;;;;;;23.68;61.63;101938.13;5194849;28;20384;-74
2022/07/13 01:20:08;;;;;;;6.82;3.55;;;;;;;23.63;61.79;101933.28;5194642;28;20022;-74
2022/07/13 01:22:43;;;;;;;4.50;3.42;;;;;;;23.64;60.45;101931.44;5194937;28;20070;-74
2022/07/13 01:25:15;;;;;;;4.90;3.42;;;;;;;23.60;61.03;101924.81;5193903;28;20030;-74
2022/07/13 01:27:48;;;;;;;3.83;3.37;;;;;;;23.63;59.21;101921.75;5194327;28;20022;-74
2022/07/13 01:30:19;;;;;;;;;;;;;;;24.16;58.01;101925.78;5193923;28;20023;-74
2022/07/13 01:32:51;;;;;;;6.67;3.47;;;;;;;23.65;58.99;101922.41;5193365;28;20515;-74
2022/07/13 01:35:23;;;;;;;5.07;3.67;;;;;;;23.62;59.02;101928.13;5193583;28;20026;-74
2022/07/13 01:37:55;;;;;;;4.00;3.13;;;;;;;23.60;59.35;101925.66;5194641;28;20030;-74
2022/07/13 01:40:27;;;;;;;5.32;3.50;;;;;;;23.57;58.89;101930.56;5194609;28;20092;-74
2022/07/13 01:42:58;;;;;;;6.40;3.20;;;;;;;23.55;59.13;101923.53;5191448;28;20038;-74
2022/07/13 01:45:30;;;;;;;4.50;3.43;;;;;;;23.59;58.40;101931.19;5194771;28;20364;-74
2022/07/13 01:48:01;;;;;;;6.37;3.00;;;;;;;23.56;58.68;101921.69;5194368;28;20030;-74
2022/07/13 01:50:32;;;;;;;4.33;3.30;;;;;;;23.53;58.81;101922.91;5193803;28;20042;-74
2022/07/13 01:53:04;;;;;;;6.03;2.90;;;;;;;23.49;59.14;101924.31;5194856;28;20030;-74
2022/07/13 01:55:35;;;;;;;4.70;2.93;;;;;;;23.49;58.85;101927.00;5194291;28;20100;-74
2022/07/13 01:58:06;;;;;;;6.23;3.37;;;;;;;23.45;59.08;101923.03;5193021;28;20480;-74
2022/07/13 02:00:38;;;;;;;6.10;3.00;;;;;;;23.44;58.91;101916.00;5195092;28;20050;-74
2022/07/13 02:03:09;;;;;;;5.87;3.00;;;;;;;23.44;59.85;101920.53;5194156;28;20022;-74
2022/07/13 02:05:40;;;;;;;5.47;3.03;;;;;;;23.41;59.57;101923.56;5194189;28;20469;-74
2022/07/13 02:08:12;;;;;;;3.73;2.60;;;;;;;23.37;59.48;101912.44;5195196;28;20097;-74
2022/07/13 02:10:43;;;;;;;5.70;2.63;;;;;;;23.37;59.82;101909.75;5198359;28;20030;-74
2022/07/13 02:13:15;;;;;;;4.60;3.07;;;;;;;23.33;60.71;101900.44;5198441;28;20396;-74
2022/07/13 02:15:46;;;;;;;6.43;2.90;;;;;;;23.34;61.02;101898.63;5196730;28;20058;-74
2022/07/13 02:18:17;;;;;;;6.30;2.77;;;;;;;23.34;59.67;101899.47;5198848;28;20026;-74
2022/07/13 02:20:49;;;;;;;4.20;3.10;;;;;;;23.32;59.93;101896.13;5198165;28;20057;-74
2022/07/13 02:23:21;;;;;;;4.10;3.10;;;;;;;23.27;60.31;101882.50;5196775;28;20030;-74
2022/07/13 02:25:52;;;;;;;4.90;2.83;;;;;;;23.25;60.52;101889.88;5195856;28;20040;-74
2022/07/13 02:28:23;;;;;;;3.63;2.80;;;;;;;23.27;60.76;101898.56;5197929;28;20476;-74
2022/07/13 02:30:55;;;;;;;7.87;3.07;;;;;;;23.27;60.97;101893.19;5197085;28;20026;-74
2022/07/13 02:33:26;;;;;;;4.37;3.17;;;;;;;23.24;61.08;101893.56;5197101;28;20050;-74
2022/07/13 02:35:57;;;;;;;4.07;2.93;;;;;;;23.22;61.47;101875.06;5198092;28;20026;-74
2022/07/13 02:38:28;;;;;;;6.33;3.20;;;;;;;23.21;61.81;101878.72;5197817;28;20034;-74
2022/07/13 02:41:00;;;;;;;3.67;2.57;;;;;;;23.24;61.66;101882.88;5197367;28;20025;-74
2022/07/13 02:43:31;;;;;;;5.20;3.50;;;;;;;23.23;61.60;101887.41;5198036;28;20041;-74
2022/07/13 02:46:03;;;;;;;6.53;3.83;;;;;;;23.20;62.44;101871.72;5196328;28;20034;-74
2022/07/13 02:48:34;;;;;;;4.70;2.83;;;;;;;23.18;62.78;101859.56;5196940;28;20146;-74
2022/07/13 02:51:05;;;;;;;6.13;3.10;;;;;;;23.19;62.79;101853.22;5197639;28;20039;-74
2022/07/13 02:53:37;;;;;;;6.10;3.20;;;;;;;23.16;62.88;101873.13;5207425;28;20019;-74
2022/07/13 02:56:08;;;;;;;3.50;2.87;;;;;;;23.17;63.17;101872.09;5197736;28;20057;-74
2022/07/13 02:58:39;;;;;;;4.03;2.83;;;;;;;23.14;63.62;101871.66;5196760;28;20031;-74
2022/07/13 03:01:11;;;;;;;6.47;3.40;;;;;;;23.14;63.51;101871.66;5197535;28;20049;-74
2022/07/13 03:03:42;;;;;;;4.53;2.90;;;;;;;23.14;64.05;101871.66;5196347;28;20060;-74
2022/07/13 03:06:14;;;;;;;4.63;3.50;;;;;;;23.13;63.85;101862.81;5197263;28;20018;-74
2022/07/13 03:08:46;;;;;;;5.13;2.93;;;;;;;23.10;64.14;101875.72;5196803;28;20026;-74
2022/07/13 03:11:18;;;;;;;4.83;3.27;;;;;;;23.10;64.40;101876.53;5197048;28;20102;-74
2022/07/13 03:13:49;;;;;;;7.27;3.60;;;;;;;23.07;64.63;101871.59;5197336;28;20026;-74
2022/07/13 03:16:20;;;;;;;5.77;2.77;;;;;;;23.02;64.92;101868.63;5196597;28;20027;-74
2022/07/13 03:18:52;;;;;;;4.67;3.17;;;;;;;23.02;65.64;101866.78;5196716;28;20038;-74
2022/07/13 03:21:23;;;;;;;4.70;2.87;;;;;;;23.00;66.63;101860.00;5193950;28;20141;-74
2022/07/13 03:23:58;;;;;;;4.30;3.03;;;;;;;22.98;65.98;101862.84;5197366;28;20076;-74
2022/07/13 03:26:29;;;;;;;4.50;3.05;;;;;;;22.96;66.44;101864.88;5196385;28;20026;-74
2022/07/13 03:29:00;;;;;;;5.67;3.30;;;;;;;22.99;66.34;101858.31;5196616;28;20475;-74
2022/07/13 03:31:32;;;;;;;7.00;3.60;;;;;;;22.99;66.81;101863.66;5196777;28;20500;-74
2022/07/13 03:34:03;;;;;;;5.27;3.30;;;;;;;22.94;67.26;101852.72;5197078;28;20019;-74
2022/07/13 03:36:34;;;;;;;4.57;3.53;;;;;;;22.94;66.87;101856.22;5195500;28;20363;-74
2022/07/13 03:39:06;;;;;;;5.67;3.40;;;;;;;22.95;67.95;101855.19;5196451;28;20022;-74
2022/07/13 03:41:37;;;;;;;5.63;3.50;;;;;;;22.93;68.22;101854.56;5196722;28;20026;-74
2022/07/13 03:44:08;;;;;;;5.90;3.60;;;;;;;22.92;68.10;101857.41;5196043;28;20026;-74
2022/07/13 03:46:40;;;;;;;5.23;3.30;;;;;;;22.89;67.98;101857.75;5196614;28;20035;-74
2022/07/13 03:49:12;;;;;;;5.20;3.30;;;;;;;22.89;68.05;101855.91;5196558;28;20024;-73
2022/07/13 03:51:46;;;;;;;6.40;3.40;;;;;;;22.86;68.59;101860.81;5195066;28;20034;-73
2022/07/13 03:54:17;;;;;;;6.35;3.38;;;;;;;22.85;67.82;101851.13;5196507;28;20073;-74
2022/07/13 03:56:48;;;;;;;9.47;4.17;;;;;;;22.86;67.61;101855.47;5196439;28;20030;-74
2022/07/13 03:59:20;;;;;;;9.70;3.50;;;;;;;22.86;68.02;101852.78;5195668;28;20044;-74
2022/07/13 04:01:51;;;;;;;9.20;3.50;;;;;;;22.85;68.23;101851.97;5196421;28;20029;-74
2022/07/13 04:04:22;;;;;;;6.97;3.30;;;;;;;22.85;67.69;101853.81;5196399;28;20042;-74
2022/07/13 04:06:53;;;;;;;8.73;4.43;;;;;;;22.86;68.27;101863.47;5194816;28;20031;-74
2022/07/13 04:09:25;;;;;;;8.57;3.30;;;;;;;22.81;69.06;101856.03;5195168;28;20041;-74
2022/07/13 04:11:56;;;;;;;5.23;3.50;;;;;;;22.81;68.28;101848.00;5196260;28;20121;-74
2022/07/13 04:14:28;;;;;;;9.37;3.77;;;;;;;22.79;69.17;101856.19;5196169;28;20041;-74
2022/07/13 04:16:59;;;;;;;8.37;3.53;;;;;;;22.80;69.69;101843.66;5193993;28;20086;-74
2022/07/13 04:19:30;;;;;;;7.10;3.40;;;;;;;22.80;68.87;101855.16;5196466;28;20034;-74
2022/07/13 04:22:02;;;;;;;5.70;3.70;;;;;;;22.80;69.40;101844.47;5194304;28;20023;-74
2022/07/13 04:24:33;;;;;;;5.50;3.60;;;;;;;22.79;68.46;101845.50;5194828;28;20030;-74
2022/07/13 04:27:04;;;;;;;4.67;3.50;;;;;;;22.79;68.93;101836.66;5195978;28;20053;-74
2022/07/13 04:29:36;;;;;;;3.53;2.90;;;;;;;22.83;68.42;101835.28;5195884;28;20409;-74
2022/07/13 04:32:07;;;;;;;3.57;2.87;;;;;;;22.83;67.44;101828.09;5195573;28;20050;-73
2022/07/13 04:34:38;;;;;;;7.80;3.67;;;;;;;22.84;67.57;101828.91;5194777;28;20113;-73
2022/07/13 04:37:10;;;;;;;3.77;2.70;;;;;;;22.86;67.74;101826.91;5195571;28;20030;-73
2022/07/13 04:39:42;;;;;;;7.57;3.13;;;;;;;22.91;67.16;101835.19;5205786;28;20057;-73
2022/07/13 04:42:13;;;;;;;5.30;3.00;;;;;;;22.90;68.12;101830.84;5194423;28;20510;-73
2022/07/13 04:44:44;;;;;;;6.00;2.70;;;;;;;22.94;68.01;101832.16;5195760;28;20033;-73
2022/07/13 04:47:15;;;;;;;6.13;3.07;;;;;;;22.93;67.50;101827.84;5195429;28;20029;-73
2022/07/13 04:49:47;;;;;;;7.07;3.10;;;;;;;22.98;68.27;101841.44;5194846;28;20030;-73
2022/07/13 04:52:18;;;;;;;3.20;2.60;;;;;;;23.01;67.82;101834.91;5190704;28;20046;-73
2022/07/13 04:54:49;;;;;;;6.00;3.30;;;;;;;22.98;67.53;101832.59;5195113;28;20018;-73
2022/07/13 04:57:20;;;;;;;3.77;2.90;;;;;;;;;;5195110;28;20022;-73
2022/07/13 04:59:52;;;;;;;5.13;3.10;;;;;;;23.03;66.37;101828.38;5195473;28;20061;-73
2022/07/13 05:02:23;;;;;;;4.13;2.63;;;;;;;23.10;66.10;101835.63;5194572;28;20030;-73
2022/07/13 05:04:54;;;;;;;5.20;3.00;;;;;;;23.12;67.04;101829.06;5195920;28;20038;-73
2022/07/13 05:07:26;;;;;;;6.27;2.87;;;;;;;23.11;67.78;101823.91;5194853;28;20060;-73
2022/07/13 05:09:57;;;;;;;4.80;2.60;;;;;;;23.18;66.65;101830.16;5194171;28;20108;-73
2022/07/13 05:12:29;;;;;;;4.67;2.90;;;;;;;23.21;65.74;101832.44;5194639;28;20038;-73
2022/07/13 05:15:00;;;;;;;5.07;3.27;;;;;;;23.24;65.26;101834.75;5192751;28;20026;-73
2022/07/13 05:17:31;;;;;;;11.53;3.33;;;;;;;23.28;65.22;101828.84;5194517;28;20034;-73
2022/07/13 05:20:04;;;;;;;9.07;3.00;;;;;;;23.33;64.03;101835.44;5194819;28;20116;-73
2022/07/13 05:22:35;;;;;;;3.75;2.70;;;;;;;23.37;63.56;101820.69;5194726;28;20128;-73
2022/07/13 05:25:07;;;;;;;5.70;3.37;;;;;;;23.41;63.24;101822.81;5194343;28;20065;-73
2022/07/13 05:27:38;;;;;;;6.57;2.50;;;;;;;23.43;62.24;101826.09;5192678;28;20136;-73
2022/07/13 05:30:11;;;;;;;4.10;2.73;;;;;;;23.44;63.36;101819.72;5195367;28;20048;-73
2022/07/13 05:32:43;;;;;;;5.15;2.78;;;;;;;23.44;61.87;101819.72;5193365;28;20078;-73
2022/07/13 05:35:14;;;;;;;7.23;2.70;;;;;;;23.46;63.18;101825.72;5195238;28;20030;-73
2022/07/13 05:37:46;;;;;;;5.13;2.60;;;;;;;23.48;62.57;101833.53;5194422;28;20113;-73
2022/07/13 05:40:17;;;;;;;4.40;2.57;;;;;;;23.49;62.87;101828.03;5193195;28;20498;-73
2022/07/13 05:42:48;;;;;;;5.70;2.67;;;;;;;23.49;63.29;101833.38;5193670;28;20113;-73
2022/07/13 05:45:20;;;;;;;3.90;2.67;;;;;;;23.54;61.79;101838.97;5194101;28;20026;-73
2022/07/13 05:47:51;;;;;;;2.83;2.53;;;;;;;23.53;61.95;101844.53;5194445;28;20019;-73
2022/07/13 05:50:22;;;;;;;5.83;2.77;;;;;;;23.52;62.10;101841.03;5193597;28;20038;-73
2022/07/13 05:52:53;;;;;;;5.17;2.40;;;;;;;23.56;62.22;101844.09;5194961;28;20045;-73
2022/07/13 05:55:25;;;;;;;6.43;2.83;;;;;;;23.64;62.34;101846.69;5194211;28;20028;-73
2022/07/13 05:57:56;;;;;;;4.10;2.37;;;;;;;23.72;62.40;101846.56;5193439;28;20038;-73
2022/07/13 06:00:27;;;;;;;4.90;2.50;;;;;;;23.77;61.48;101840.63;5193718;28;20084;-73
2022/07/13 06:02:59;;;;;;;7.67;2.80;;;;;;;23.75;62.06;101848.00;5194737;28;20547;-73
2022/07/13 06:05:30;;;;;;;4.13;2.90;;;;;;;23.80;62.64;101848.28;5193511;28;20653;-73
2022/07/13 06:08:01;;;;;;;7.30;2.70;;;;;;;23.82;62.91;101848.06;5194164;28;20019;-73
2022/07/13 06:10:33;;;;;;;5.80;2.80;;;;;;;23.88;63.97;101848.13;5194349;28;20031;-73
2022/07/13 06:13:04;;;;;;;5.97;2.73;;;;;;;23.92;62.92;101837.88;5192953;28;20136;-73
2022/07/13 06:15:36;;;;;;;5.77;3.00;;;;;;;23.95;63.06;101842.84;5193252;28;20030;-73
2022/07/13 06:18:07;;;;;;;5.88;2.42;;;;;;;23.98;62.50;101853.13;5192315;28;20033;-74
2022/07/13 06:20:39;;;;;;;4.80;2.37;;;;;;;24.07;63.67;101856.53;5194438;28;20018;-73
2022/07/13 06:23:10;;;;;;;6.23;2.77;;;;;;;24.10;62.41;101856.13;5194276;28;20015;-73
2022/07/13 06:25:43;;;;;;;5.77;2.70;;;;;;;24.20;62.69;101853.91;5193728;28;20034;-73
2022/07/13 06:28:14;;;;;;;6.25;2.80;;;;;;;24.31;62.67;101853.38;5192944;28;20027;-73
2022/07/13 06:30:45;;;;;;;12.90;2.97;;;;;;;24.36;63.24;101850.09;5194636;28;20400;-73
2022/07/13 06:33:17;;;;;;;7.03;2.63;;;;;;;24.43;62.44;101851.84;5192762;28;20051;-73
2022/07/13 06:35:48;;;;;;;9.13;3.33;;;;;;;24.46;61.70;101856.78;5192655;28;20069;-73
2022/07/13 06:38:19;;;;;;;6.20;2.73;;;;;;;24.43;61.60;101846.47;5192562;28;20136;-72
2022/07/13 06:40:50;;;;;;;3.70;2.70;;;;;;;24.47;60.86;101847.75;5193987;28;20085;-72
2022/07/13 06:43:22;;;;;;;6.90;3.07;;;;;;;24.50;61.32;101847.34;5192870;28;20062;-72
2022/07/13 06:45:53;;;;;;;4.73;2.87;;;;;;;24.55;62.21;101844.09;5194388;28;20472;-72
2022/07/13 06:48:24;;;;;;;3.53;2.63;;;;;;;24.56;62.32;101852.94;5194102;28;20031;-72
2022/07/13 06:50:56;;;;;;;5.73;2.90;;;;;;;24.59;61.67;101847.19;5193764;28;20058;-72
2022/07/13 06:53:27;;;;;;;5.30;2.80;;;;;;;24.80;61.38;101844.41;5193664;28;20030;-72
2022/07/13 06:55:58;;;;;;;5.90;3.10;;;;;;;25.00;61.77;101836.41;5197583;28;20317;-72
2022/07/13 06:58:30;;;;;;;5.03;2.70;;;;;;;25.16;59.87;101841.47;5207729;28;20065;-72
2022/07/13 07:01:01;;;;;;;5.97;3.50;;;;;;;25.25;60.82;101844.78;5196107;28;20046;-72
2022/07/13 07:03:35;;;;;;;8.60;3.30;;;;;;;25.19;60.27;101842.91;5197919;28;20543;-73
2022/07/13 07:06:07;;;;;;;6.70;3.22;;;;;;;25.13;61.31;101841.03;5197356;28;20085;-73
2022/07/13 07:08:38;;;;;;;10.13;3.67;;;;;;;25.17;61.02;101843.09;5196471;28;20034;-72
2022/07/13 07:11:10;;;;;;;8.70;3.03;;;;;;;25.26;61.94;101857.16;5197902;28;20033;-73
2022/07/13 07:13:41;;;;;;;8.70;3.77;;;;;;;25.22;61.75;101858.59;5197721;28;20464;-72
2022/07/13 07:16:12;;;;;;;6.83;3.23;;;;;;;25.18;63.83;101852.81;5197097;28;20038;-72
2022/07/13 07:18:43;;;;;;;5.53;3.37;;;;;;;25.10;63.16;101857.53;5196752;28;20030;-72
2022/07/13 07:21:15;;;;;;;6.43;3.93;;;;;;;25.33;64.41;101860.69;5195638;28;20044;-73
2022/07/13 07:23:47;;;;;;;6.73;3.73;;;;;;;25.58;61.86;101844.00;5197207;28;20044;-73
2022/07/13 07:26:18;;;;;;;6.22;3.65;;;;;;;25.69;62.15;101848.78;5196683;28;20019;-73
2022/07/13 07:28:49;;;;;;;6.20;3.50;;;;;;;25.86;63.04;101851.88;5196803;28;20034;-72
2022/07/13 07:31:21;;;;;;;6.90;4.30;;;;;;;25.94;62.03;101846.31;5196992;28;20018;-73
2022/07/13 07:33:52;;;;;;;7.13;4.60;;;;;;;25.94;59.84;101847.13;5196487;28;20036;-72
2022/07/13 07:36:23;;;;;;;8.13;3.90;;;;;;;26.03;61.72;101846.94;5196331;28;20038;-72
2022/07/13 07:38:55;;;;;;;6.73;4.00;;;;;;;26.00;60.52;101845.47;5196550;28;20022;-73
2022/07/13 07:41:29;;;;;;;6.50;4.30;;;;;;;26.17;60.61;101845.84;5196811;28;20030;-73
2022/07/13 07:44:00;;;;;;;7.90;4.15;;;;;;;26.12;61.49;101837.63;5196217;28;20061;-73
2022/07/13 07:46:32;;;;;;;6.30;3.77;;;;;;;26.24;61.87;101835.94;5196738;28;20019;-73
2022/07/13 07:49:03;;;;;;;7.80;4.10;;;;;;;26.15;63.24;101839.88;5196105;28;20034;-72
2022/07/13 07:51:34;;;;;;;8.77;4.30;;;;;;;26.14;62.64;101838.25;5196389;28;20032;-73
2022/07/13 07:54:06;;;;;;;10.23;4.30;;;;;;;26.23;61.65;101842.34;5195828;28;20112;-72
2022/07/13 07:56:37;;;;;;;7.37;3.93;;;;;;;26.35;60.88;101843.34;5196763;28;20037;-73
2022/07/13 07:59:08;;;;;;;9.13;4.30;;;;;;;26.47;61.73;101837.34;5196722;28;20045;-73
2022/07/13 08:01:40;;;;;;;9.73;4.30;;;;;;;26.52;62.35;101834.84;5195655;28;20439;-72
2022/07/13 08:04:11;;;;;;;5.60;4.35;;;;;;;26.57;61.90;101833.19;5195451;28;20041;-73
2022/07/13 08:06:43;;;;;;;8.27;4.43;;;;;;;26.74;61.23;101828.16;5196420;28;20027;-73
2022/07/13 08:09:14;;;;;;;5.20;4.07;;;;;;;26.99;60.96;101830.13;5195736;28;20022;-73
2022/07/13 08:11:45;;;;;;;6.53;4.23;;;;;;;27.02;60.96;101837.75;5196785;28;20109;-72
2022/07/13 08:14:17;;;;;;;9.13;5.20;;;;;;;27.00;60.43;101847.88;5196162;28;20054;-73
2022/07/13 08:16:48;;;;;;;6.47;4.40;;;;;;;27.02;60.94;101851.22;5195844;28;20030;-73
2022/07/13 08:19:19;;;;;;;7.10;4.93;;;;;;;27.01;61.79;101849.53;5193899;28;20085;-73
2022/07/13 08:21:51;;;;;;;8.57;5.10;;;;;;;27.19;60.80;101840.78;5195396;28;20484;-73
2022/07/13 08:24:22;;;;;;;6.07;3.77;;;;;;;27.41;62.05;101845.59;5194273;28;20022;-73
2022/07/13 08:26:54;;;;;;;6.80;4.43;;;;;;;27.33;60.74;101856.63;5195357;28;20484;-73
2022/07/13 08:29:25;;;;;;;7.30;4.15;;;;;;;27.59;61.15;101855.63;5195790;28;20018;-73
2022/07/13 08:31:56;;;;;;;6.37;4.43;;;;;;;27.55;59.46;101849.03;5195759;28;20495;-73
2022/07/13 08:40:18;;;;;;;7.07;3.70;;;;;;;27.84;60.35;101850.28;5195943;28;20026;-72
2022/07/13 08:42:50;;;;;;;7.45;3.70;;;;;;;27.92;59.14;101846.50;5195451;28;20125;-73
2022/07/13 08:45:21;;;;;;;5.27;3.77;;;;;;;28.01;57.67;101853.22;5194923;28;20109;-73
2022/07/13 08:47:52;;;;;;;7.27;3.80;;;;;;;28.03;56.64;101861.06;5195308;28;20085;-73
2022/07/13 08:50:27;;;;;;;5.30;3.53;;;;;;;28.17;55.35;101854.53;5195675;28;20030;-73
2022/07/13 08:53:00;;;;;;;6.35;3.38;;;;;;;28.17;57.52;101851.81;5193393;28;20069;-73
2022/07/13 08:55:31;;;;;;;5.85;3.95;;;;;;;28.22;57.32;101851.97;5195949;28;20038;-73
2022/07/13 08:58:03;;;;;;;6.10;3.45;;;;;;;28.25;54.56;101856.91;5195578;28;20029;-73
2022/07/13 09:00:35;;;;;;;8.37;3.40;;;;;;;28.26;56.93;101858.59;5195312;28;20030;-73
2022/07/13 09:03:06;;;;;;;6.53;3.40;;;;;;;28.32;54.27;101859.56;5194498;28;20072;-73
2022/07/13 09:05:38;;;;;;;7.80;3.33;;;;;;;28.38;54.51;101860.56;5195233;28;20089;-73
2022/07/13 09:08:11;;;;;;;6.95;3.30;;;;;;;28.47;57.16;101870.00;5195028;28;20491;-73
2022/07/13 09:10:58;;;;;;;6.68;3.50;;;;;;;28.70;57.02;101869.31;5193788;28;20026;-74
2022/07/13 09:13:40;;;;;;;6.40;2.90;;;;;;;28.86;56.04;101866.00;5194116;28;20400;-73
2022/07/13 09:16:23;;;;;;;6.82;3.75;;;;;;;28.73;53.39;101864.28;5194907;28;20439;-73
2022/07/13 09:18:56;;;;;;;5.45;3.10;;;;;;;28.70;54.10;101872.00;5194723;28;20230;-74
2022/07/13 09:21:31;;;;;;;5.47;3.38;;;;;;;28.60;53.76;101870.69;5194291;28;20506;-73
2022/07/13 09:24:03;;;;;;;7.28;3.53;;;;;;;28.61;51.88;101882.28;5194767;28;20041;-73
2022/07/13 09:26:45;;;;;;;6.75;2.97;;;;;;;28.70;51.52;101875.53;5194477;28;20026;-73
2022/07/13 09:29:20;;;;;;;4.18;2.70;;;;;;;28.71;52.96;101874.47;5194120;28;20034;-73
2022/07/13 09:31:56;;;;;;;6.00;3.15;;;;;;;28.87;53.34;101862.28;5194481;28;20049;-73
2022/07/13 09:34:43;;;;;;;5.50;3.45;;;;;;;28.91;52.25;101881.53;5195101;28;20092;-73
2022/07/13 09:37:16;;;;;;;4.35;3.10;;;;;;;28.42;52.70;101878.75;5192556;28;20252;-73
2022/07/13 09:39:57;;;;;;;6.05;2.90;;;;;;;28.67;53.57;101880.56;5192537;28;20034;-74
2022/07/13 09:42:30;;;;;;;5.57;2.42;;;;;;;28.52;52.00;101873.66;5193327;28;20038;-73
2022/07/13 09:47:59;;;;;;;4.82;2.17;;;;;;;28.52;50.98;101870.13;5194029;28;20106;-73
2022/07/13 09:50:40;;;;;;;6.88;2.88;;;;;;;28.69;50.44;101856.88;5194621;28;20061;-73
2022/07/13 09:53:29;;;;;;;5.82;2.70;;;;;;;28.80;51.20;101872.31;5194322;28;20033;-74
2022/07/13 09:56:02;;;;;;;5.55;2.42;;;;;;;28.53;51.11;101879.91;5193631;28;20467;-73
2022/07/13 09:58:37;;;;;;;5.95;2.60;;;;;;;28.71;51.33;101876.34;5193397;28;20038;-73
2022/07/13 10:01:08;;;;;;;6.55;2.40;;;;;;;28.85;51.08;101875.16;5194073;28;20026;-73
2022/07/13 10:03:40;;;;;;;5.68;2.50;;;;;;;28.77;49.15;101873.59;5194551;28;20037;-73
2022/07/13 10:06:13;;;;;;;3.38;2.40;;;;;;;28.79;48.33;101886.81;5193674;28;20033;-73
2022/07/13 10:08:44;;;;;;;5.20;2.70;;;;;;;28.81;48.66;101880.16;5194338;28;20069;-73
2022/07/13 10:11:16;;;;;;;4.47;2.50;;;;;;;28.74;49.62;101884.00;5194356;28;20030;-73
2022/07/13 10:13:48;;;;;;;5.00;2.30;;;;;;;28.97;49.02;101892.19;5192951;28;20484;-73
2022/07/13 10:16:19;;;;;;;4.97;2.35;;;;;;;28.76;47.60;101890.81;5194516;28;20546;-73
2022/07/13 10:18:51;;;;;;;4.00;2.23;;;;;;;28.95;46.93;101893.50;5194518;28;20023;-73
2022/07/13 10:22:00;;;;;;;4.70;2.20;;;;;;;29.05;46.50;101893.78;5194245;28;20141;-73
2022/07/13 10:24:31;;;;;;;5.65;2.40;;;;;;;28.86;46.02;101882.19;5193421;28;20372;-73
2022/07/13 10:27:43;;;;;;;3.08;2.15;;;;;;;29.22;47.45;101889.41;5194483;28;20142;-73
2022/07/13 10:30:17;;;;;;;3.85;1.90;;;;;;;29.03;47.09;101895.91;5197243;28;20473;-73
2022/07/13 10:32:49;;;;;;;3.40;2.13;;;;;;;28.81;47.41;101893.66;5197028;28;20050;-73
2022/07/13 10:35:21;;;;;;;4.70;2.30;;;;;;;28.82;47.05;101892.59;5198733;28;20101;-73
2022/07/13 10:38:01;;;;;;;2.60;1.90;;;;;;;28.88;47.79;101898.97;5197925;28;20018;-73
2022/07/13 10:40:37;;;;;;;3.83;2.00;;;;;;;28.73;45.61;101891.25;5197085;28;20112;-73
2022/07/13 10:43:09;;;;;;;7.57;2.20;;;;;;;28.71;47.81;101901.44;5198231;28;20054;-73
2022/07/13 10:45:43;;;;;;;;;;;;;;;29.52;45.72;101899.38;5198378;28;20049;-73
2022/07/13 10:48:31;;;;;;;4.35;1.90;;;;;;;29.13;45.90;101896.16;5197098;28;19963;-73
2022/07/13 10:51:03;;;;;;;3.70;2.00;;;;;;;29.15;46.49;101899.47;5197482;28;20061;-73
2022/07/13 10:53:37;;;;;;;4.13;1.67;;;;;;;29.57;45.95;101897.66;5197968;28;20034;-73
2022/07/13 10:56:21;;;;;;;3.80;2.00;;;;;;;29.78;44.26;101899.00;5197809;28;20068;-73
2022/07/13 10:58:53;;;;;;;3.63;1.83;;;;;;;29.48;44.94;101903.59;5195116;28;20037;-73
2022/07/13 11:01:30;;;;;;;3.73;2.40;;;;;;;29.45;43.86;101906.75;5196637;28;20384;-73
2022/07/13 11:04:03;;;;;;;3.78;2.10;;;;;;;29.32;46.67;101908.59;5195449;28;20030;-73
2022/07/13 11:06:36;;;;;;;6.45;2.50;;;;;;;29.16;44.59;101903.81;5197078;28;20486;-73
2022/07/13 11:09:15;;;;;;;2.97;2.28;;;;;;;29.33;46.61;101912.94;5197702;28;20018;-73
2022/07/13 11:11:51;;;;;;;5.45;2.95;;;;;;;29.22;50.27;101907.50;5197399;28;20174;-73
2022/07/13 11:14:35;;;;;;;3.45;2.05;;;;;;;29.21;49.07;101916.63;5197474;28;20022;-73
2022/07/13 11:17:21;;;;;;;4.13;2.50;;;;;;;29.08;48.73;101912.22;5196364;28;20030;-73
2022/07/13 11:19:53;;;;;;;7.28;2.08;;;;;;;28.83;46.73;101906.94;5196360;28;20089;-73
2022/07/13 11:22:27;;;;;;;3.35;1.95;;;;;;;29.08;47.80;101912.22;5207900;28;20030;-73
2022/07/13 11:25:30;;;;;;;3.17;2.30;;;;;;;29.49;46.62;101906.06;5196580;28;20034;-73
2022/07/13 11:28:13;;;;;;;5.90;2.30;;;;;;;29.53;45.95;101903.72;5195519;28;20026;-73
2022/07/13 11:30:51;;;;;;;6.18;1.90;;;;;;;29.65;43.67;101899.19;5196190;28;20553;-73
2022/07/13 11:33:23;;;;;;;4.40;1.90;;;;;;;29.42;43.24;101909.91;5196685;28;20108;-73
2022/07/13 11:35:57;;;;;;;3.10;1.98;;;;;;;29.60;43.21;101907.19;5196483;28;20043;-73
2022/07/13 11:38:35;;;;;;;4.47;2.50;;;;;;;29.63;43.90;101909.41;5195992;28;20026;-72
2022/07/13 11:41:17;;;;;;;4.55;2.35;;;;;;;29.67;44.73;101913.31;5195310;28;20029;-73
2022/07/13 11:43:53;;;;;;;4.13;1.77;;;;;;;29.51;43.57;101919.31;5197029;28;20034;-73
2022/07/13 11:46:27;;;;;;;3.53;2.10;;;;;;;29.37;44.15;101913.31;5196520;28;20085;-73
2022/07/13 11:49:03;;;;;;;4.22;2.10;;;;;;;29.42;44.49;101908.03;5195576;28;20188;-73
2022/07/13 11:51:34;;;;;;;5.30;2.65;;;;;;;29.36;43.53;101900.88;5196115;28;20034;-73
2022/07/13 11:54:13;;;;;;;3.07;2.07;;;;;;;29.20;42.84;101896.09;5196696;28;20084;-73
2022/07/13 11:56:53;;;;;;;5.38;2.05;;;;;;;29.41;43.58;101905.56;5195704;28;20042;-73
2022/07/13 11:59:42;;;;;;;4.40;1.70;;;;;;;29.61;43.05;101906.13;5196527;28;20050;-72
2022/07/13 12:02:14;;;;;;;4.50;2.38;;;;;;;29.45;43.99;101901.34;5196132;28;20023;-73